Time;durP1;ratioP1;P1;durP2;ratioP2;P2;SDS_P1;SDS_P2;PMS_P1;PMS_P2;Temp;Humidity;BMP_temperature;BMP_pressure;BME280_temperature;BME280_humidity;BME280_pressure;Samples;Min_cycle;Max_cycle;Signal;HPM_P1;HPM_P2
2021/10/19 00:02:15;;;;;;;;;15.33;13.33;;;;;18.58;56.68;101681.34;4978715;28;45475;-60
2021/10/19 00:04:40;;;;;;;;;17.00;16.67;;;;;18.59;56.72;101682.25;4979053;28;45459;-49
2021/10/19 00:07:06;;;;;;;;;14.00;13.33;;;;;18.60;56.58;101686.66;4979111;28;45387;-56
2021/10/19 00:09:31;;;;;;;;;13.67;13.00;;;;;18.57;56.57;101684.88;4978692;28;46247;-54
2021/10/19 00:11:56;;;;;;;;;15.33;14.67;;;;;18.59;56.64;101682.25;4978656;28;45461;-53
2021/10/19 00:14:22;;;;;;;;;15.00;14.00;;;;;18.60;56.39;101673.34;4978989;28;45360;-55
2021/10/19 00:16:47;;;;;;;;;13.67;13.67;;;;;18.59;56.43;101674.25;4978977;28;45421;-55
2021/10/19 00:19:13;;;;;;;;;14.00;13.00;;;;;18.58;56.27;101670.69;4978957;28;45373;-53
2021/10/19 00:21:38;;;;;;;;;15.00;14.00;;;;;18.59;56.50;101677.78;4978801;28;45397;-55
2021/10/19 00:24:04;;;;;;;;;13.00;13.00;;;;;18.59;56.66;101675.13;4978711;28;45424;-51
2021/10/19 00:26:29;;;;;;;;;12.00;11.67;;;;;18.59;56.89;101677.78;4978755;28;45396;-53
2021/10/19 00:28:54;;;;;;;;;13.33;13.33;;;;;18.59;56.63;101672.47;4960817;28;47156;-59
2021/10/19 00:31:20;;;;;;;;;15.00;13.33;;;;;18.60;56.74;101676.03;4978341;28;45505;-52
2021/10/19 00:33:45;;;;;;;;;12.33;12.33;;;;;18.61;56.90;101683.13;4978796;28;45251;-53
2021/10/19 00:36:10;;;;;;;;;14.33;13.00;;;;;18.59;56.79;101672.47;4978928;28;45367;-61
2021/10/19 00:38:36;;;;;;;;;14.00;13.33;;;;;18.60;56.75;101674.25;4978340;28;45488;-52
2021/10/19 00:41:01;;;;;;;;;14.33;14.33;;;;;18.60;56.61;101668.94;4978103;28;45412;-52
2021/10/19 00:43:27;;;;;;;;;15.00;12.67;;;;;18.60;56.55;101668.03;4978531;28;45324;-51
2021/10/19 00:45:54;;;;;;;;;16.00;14.67;;;;;18.60;56.83;101670.69;4978438;28;45525;-53
2021/10/19 00:48:21;;;;;;;;;15.67;12.33;;;;;18.60;56.62;101668.94;4978250;28;46079;-53
2021/10/19 00:50:47;;;;;;;;;14.00;13.00;;;;;18.60;56.62;101666.25;4978154;28;45368;-53
2021/10/19 00:53:16;;;;;;;;;11.33;11.00;;;;;18.60;56.58;101671.59;4977572;28;45333;-55
2021/10/19 00:55:42;;;;;;;;;13.67;12.33;;;;;18.61;56.61;101670.69;4978389;28;45327;-55
2021/10/19 00:58:08;;;;;;;;;15.33;14.67;;;;;18.60;57.05;101676.03;4977746;28;47235;-55
2021/10/19 01:00:33;;;;;;;;;14.25;14.25;;;;;18.60;56.69;101679.56;4978012;28;45449;-57
2021/10/19 01:02:59;;;;;;;;;14.67;13.00;;;;;18.60;56.94;101690.22;4978067;28;45551;-50
2021/10/19 01:05:25;;;;;;;;;12.67;12.67;;;;;18.60;56.75;101687.56;4978391;28;45400;-54
2021/10/19 01:07:50;;;;;;;;;17.67;15.33;;;;;18.61;56.70;101696.44;4978011;28;47052;-54
2021/10/19 01:10:16;;;;;;;;;15.67;12.67;;;;;18.61;56.85;101688.47;4977782;28;45451;-54
2021/10/19 01:12:42;;;;;;;;;11.33;11.33;;;;;18.61;56.65;101696.44;4977987;28;45466;-51
2021/10/19 01:15:12;;;;;;;;;13.33;12.33;;;;;18.62;56.75;101707.09;4977993;28;45472;-50
2021/10/19 01:17:42;;;;;;;;;14.33;13.33;;;;;18.61;56.55;101704.44;4977686;28;46335;-57
2021/10/19 01:20:23;;;;;;;;;12.67;11.33;;;;;18.61;56.33;101699.97;4977716;28;45473;-55
2021/10/19 01:22:48;;;;;;;;;10.67;9.67;;;;;18.61;56.60;101697.31;4977626;28;45440;-56
2021/10/19 01:25:20;;;;;;;;;13.33;12.67;;;;;18.61;56.46;101693.78;4977725;28;45368;-55
2021/10/19 01:27:59;;;;;;;;;14.00;13.67;;;;;18.61;56.80;101694.66;4976867;28;46456;-55
2021/10/19 01:30:26;;;;;;;;;12.67;11.67;;;;;18.60;56.70;101692.91;4977376;28;45439;-59
2021/10/19 01:32:53;;;;;;;;;13.33;11.33;;;;;18.61;56.97;101697.31;4977433;28;45308;-59
2021/10/19 01:35:19;;;;;;;;;13.00;13.00;;;;;18.61;56.82;101689.31;4977703;28;45319;-54
2021/10/19 01:37:44;;;;;;;;;13.00;12.33;;;;;18.61;56.64;101689.31;4977239;28;47210;-53
2021/10/19 01:40:13;;;;;;;;;13.33;10.67;;;;;18.62;56.97;101692.88;4977440;28;45446;-56
2021/10/19 01:42:39;;;;;;;;;14.00;14.00;;;;;18.61;56.87;101680.47;4977978;28;45589;-55
2021/10/19 01:45:12;;;;;;;;;13.00;10.67;;;;;18.62;56.85;101691.13;4977707;28;45369;-56
2021/10/19 01:47:38;;;;;;;;;13.00;13.00;;;;;18.62;56.98;101683.13;4977379;28;46224;-55
2021/10/19 01:50:04;;;;;;;;;13.00;13.00;;;;;18.62;57.09;101685.78;4977306;28;45246;-59
2021/10/19 01:52:29;;;;;;;;;12.67;12.67;;;;;18.62;56.94;101675.13;4977123;28;45438;-57
2021/10/19 01:54:55;;;;;;;;;13.67;13.67;;;;;18.62;56.50;101683.13;4977546;28;45506;-53
2021/10/19 01:57:20;;;;;;;;;13.67;12.33;;;;;18.63;56.51;101684.03;4977166;28;46090;-49
2021/10/19 01:59:45;;;;;;;;;11.33;8.00;;;;;18.62;56.71;101688.44;4977273;28;45383;-53
2021/10/19 02:02:11;;;;;;;;;11.00;10.00;;;;;18.62;56.75;101687.56;4977337;28;45775;-55
2021/10/19 02:04:36;;;;;;;;;12.33;11.00;;;;;18.62;56.64;101693.78;4976087;28;45404;-52
2021/10/19 02:07:01;;;;;;;;;13.33;11.33;;;;;18.62;56.95;101685.78;4977254;28;46075;-51
2021/10/19 02:09:27;;;;;;;;;14.67;13.00;;;;;18.62;56.86;101683.13;4976914;28;45276;-52
2021/10/19 02:11:54;;;;;;;;;12.33;9.00;;;;;18.63;56.96;101676.03;4977218;28;45438;-53
2021/10/19 02:14:19;;;;;;;;;11.67;11.67;;;;;18.62;56.71;101669.81;4977352;28;45449;-54
2021/10/19 02:16:45;;;;;;;;;12.33;10.67;;;;;18.63;57.20;101674.22;4976722;28;45315;-52
2021/10/19 02:19:10;;;;;;;;;12.67;12.67;;;;;18.62;57.14;101677.81;4977286;28;45235;-53
2021/10/19 02:21:36;;;;;;;;;12.33;11.67;;;;;18.63;56.96;101678.69;4976909;28;45348;-51
2021/10/19 02:24:01;;;;;;;;;12.67;11.67;;;;;18.64;56.86;101675.13;4977113;28;45346;-53
2021/10/19 02:26:27;;;;;;;;;13.00;12.00;;;;;18.63;56.91;101668.91;4976912;28;45908;-52
2021/10/19 02:28:52;;;;;;;;;12.00;12.00;;;;;18.62;56.58;101661.81;4976973;28;45222;-50
2021/10/19 02:31:17;;;;;;;;;15.00;11.00;;;;;18.63;56.66;101668.91;4976785;28;45211;-52
2021/10/19 02:33:43;;;;;;;;;12.00;11.00;;;;;18.64;56.84;101664.47;4977218;28;45481;-52
2021/10/19 02:36:08;;;;;;;;;12.33;12.00;;;;;18.65;56.94;101670.69;4976769;28;46124;-52
2021/10/19 02:38:33;;;;;;;;;12.67;9.67;;;;;18.64;56.70;101669.81;4976622;28;45247;-51
2021/10/19 02:40:59;;;;;;;;;10.67;10.67;;;;;18.63;57.04;101668.91;4976848;28;45877;-57
2021/10/19 02:43:24;;;;;;;;;13.00;12.67;;;;;18.63;57.13;101662.72;4977041;28;45369;-56
2021/10/19 02:45:49;;;;;;;;;14.67;11.67;;;;;18.65;57.20;101662.72;4976305;28;47182;-54
2021/10/19 02:48:15;;;;;;;;;11.00;9.67;;;;;18.63;57.09;101662.72;4976654;28;45459;-55
2021/10/19 02:50:40;;;;;;;;;11.33;10.00;;;;;18.63;56.92;101658.25;4976908;28;45313;-54
2021/10/19 02:53:06;;;;;;;;;9.67;9.33;;;;;18.64;57.08;101667.13;4976578;28;45397;-53
2021/10/19 02:55:31;;;;;;;;;9.33;9.00;;;;;18.63;57.03;101660.91;4975632;28;46218;-53
2021/10/19 02:57:56;;;;;;;;;12.33;10.00;;;;;18.63;56.84;101660.91;4976671;28;45553;-55
2021/10/19 03:00:22;;;;;;;;;8.00;8.00;;;;;18.65;56.88;101673.34;4976908;28;45404;-57
2021/10/19 03:02:47;;;;;;;;;12.00;11.00;;;;;18.63;56.72;101662.72;4976658;28;45473;-54
2021/10/19 03:05:15;;;;;;;;;13.67;12.33;;;;;18.65;56.78;101670.69;4976496;28;46151;-55
2021/10/19 03:07:40;;;;;;;;;13.00;13.00;;;;;18.63;56.55;101663.59;4976208;28;45175;-54
2021/10/19 03:10:06;;;;;;;;;10.00;10.00;;;;;18.63;56.61;101666.25;4976327;28;45430;-58
2021/10/19 03:12:32;;;;;;;;;12.00;10.00;;;;;18.65;56.91;101666.25;4959200;28;45421;-52
2021/10/19 03:14:57;;;;;;;;;10.67;10.67;;;;;18.65;56.91;101674.25;4976356;28;46167;-49
2021/10/19 03:17:22;;;;;;;;;10.67;9.67;;;;;18.63;57.24;101671.56;4979689;28;45237;-54
2021/10/19 03:19:48;;;;;;;;;10.67;10.67;;;;;18.65;57.14;101684.91;4979748;28;45217;-54
2021/10/19 03:22:13;;;;;;;;;10.67;10.33;;;;;18.66;57.11;101669.78;4979875;28;45468;-52
2021/10/19 03:24:39;;;;;;;;;13.33;12.00;;;;;18.66;57.07;101669.78;4979573;28;46254;-51
2021/10/19 03:27:04;;;;;;;;;13.67;10.67;;;;;18.65;56.85;101673.34;4979341;28;45419;-53
2021/10/19 03:29:29;;;;;;;;;13.00;12.00;;;;;18.66;56.83;101675.13;4979577;28;45392;-52
2021/10/19 03:31:55;;;;;;;;;14.67;11.67;;;;;18.66;57.06;101677.78;4979373;28;45397;-52
2021/10/19 03:34:21;;;;;;;;;12.67;10.67;;;;;18.65;56.71;101670.69;4979358;28;46076;-53
2021/10/19 03:36:46;;;;;;;;;10.33;9.33;;;;;18.65;56.93;101665.38;4979392;28;45371;-52
2021/10/19 03:39:12;;;;;;;;;11.00;10.67;;;;;18.65;56.63;101682.25;4979591;28;45435;-51
2021/10/19 03:41:37;;;;;;;;;11.67;11.33;;;;;18.66;57.19;101678.69;4979472;28;45333;-54
2021/10/19 03:44:03;;;;;;;;;12.00;10.67;;;;;18.65;57.17;101682.25;4978982;28;45567;-55
2021/10/19 03:46:28;;;;;;;;;8.33;8.33;;;;;18.66;57.22;101677.78;4979205;28;45325;-51
2021/10/19 03:48:53;;;;;;;;;12.00;11.00;;;;;18.67;57.25;101684.91;4979264;28;45308;-57
2021/10/19 03:51:19;;;;;;;;;13.67;12.33;;;;;18.67;57.33;101684.91;4979572;28;45491;-54
2021/10/19 03:53:45;;;;;;;;;12.33;11.00;;;;;18.67;57.17;101700.88;4979051;28;46268;-53
2021/10/19 03:56:10;;;;;;;;;13.67;12.00;;;;;18.66;57.47;101688.44;4979210;28;45277;-54
2021/10/19 03:58:35;;;;;;;;;11.67;10.67;;;;;18.65;57.36;101690.22;4979146;28;45743;-53
2021/10/19 04:01:01;;;;;;;;;11.33;11.00;;;;;18.66;56.97;101684.00;4979074;28;45320;-55
2021/10/19 04:03:26;;;;;;;;;10.00;10.00;;;;;18.66;57.08;101689.31;4978854;28;47128;-53
2021/10/19 04:05:54;;;;;;;;;14.00;11.00;;;;;18.66;57.27;101689.31;4978948;28;45485;-52
2021/10/19 04:08:19;;;;;;;;;9.00;9.00;;;;;18.66;57.00;101688.44;4979248;28;45406;-55
2021/10/19 04:10:44;;;;;;;;;13.00;12.00;;;;;18.67;56.79;101696.44;4978845;28;45464;-50
2021/10/19 04:13:10;;;;;;;;;11.00;11.00;;;;;18.66;56.85;101691.09;4978928;28;45371;-57
2021/10/19 04:15:35;;;;;;;;;10.33;10.33;;;;;18.66;57.15;101693.75;4978804;28;45280;-61
2021/10/19 04:18:01;;;;;;;;;9.33;8.67;;;;;18.66;57.21;101705.31;4978926;28;45329;-60
2021/10/19 04:20:26;;;;;;;;;8.33;8.00;;;;;18.66;57.06;101699.97;4979020;28;45447;-55
2021/10/19 04:22:52;;;;;;;;;12.67;9.67;;;;;18.66;57.14;101693.75;4961060;28;48335;-58
2021/10/19 04:25:17;;;;;;;;;9.33;7.67;;;;;18.66;57.43;101694.66;4978561;28;45390;-55
2021/10/19 04:27:43;;;;;;;;;10.67;10.67;;;;;18.66;57.53;101694.66;4977905;28;45370;-52
2021/10/19 04:30:09;;;;;;;;;9.00;8.00;;;;;18.67;57.21;101704.44;4979148;28;45330;-50
2021/10/19 04:32:34;;;;;;;;;10.33;9.33;;;;;18.67;57.15;101709.75;4978162;28;46319;-51
2021/10/19 04:35:00;;;;;;;;;8.33;8.33;;;;;18.68;57.31;101710.63;4978495;28;45236;-54
2021/10/19 04:37:25;;;;;;;;;11.33;10.33;;;;;18.67;57.24;101707.09;4978601;28;45655;-52
2021/10/19 04:39:50;;;;;;;;;11.33;10.33;;;;;18.68;57.17;101705.28;4978812;28;45249;-53
2021/10/19 04:42:16;;;;;;;;;12.00;11.00;;;;;18.67;57.13;101707.09;4978111;28;46345;-52
2021/10/19 04:44:41;;;;;;;;;12.67;11.67;;;;;18.68;56.84;101711.53;4978435;28;45462;-58
2021/10/19 04:47:07;;;;;;;;;14.33;11.00;;;;;18.67;57.11;101700.88;4960937;28;45487;-54
2021/10/19 04:49:33;;;;;;;;;12.00;10.33;;;;;18.68;57.40;101702.63;4978582;28;45333;-52
2021/10/19 04:51:58;;;;;;;;;11.67;9.67;;;;;18.68;57.39;101707.97;4978044;28;46133;-52
2021/10/19 04:54:24;;;;;;;;;8.67;8.67;;;;;18.67;57.27;101700.88;4978281;28;45699;-55
2021/10/19 04:56:49;;;;;;;;;10.00;8.67;;;;;18.68;57.48;101691.97;4978056;28;45447;-49
2021/10/19 04:59:15;;;;;;;;;13.67;10.67;;;;;18.68;57.27;101702.63;4978498;28;45393;-55
2021/10/19 05:01:40;;;;;;;;;13.00;11.67;;;;;18.69;57.52;101699.09;4977954;28;45988;-56
2021/10/19 05:04:06;;;;;;;;;10.67;10.00;;;;;18.68;57.31;101714.19;4977779;28;45329;-54
2021/10/19 05:06:32;;;;;;;;;11.00;11.00;;;;;18.69;57.46;101707.09;4988687;28;45416;-52
2021/10/19 05:08:57;;;;;;;;;14.00;12.33;;;;;18.69;57.39;101709.75;4997753;28;45264;-52
2021/10/19 05:11:23;;;;;;;;;10.33;10.00;;;;;18.68;57.01;101710.63;4997228;28;46302;-54
2021/10/19 05:13:48;;;;;;;;;13.33;12.00;;;;;18.68;56.98;101698.19;4997083;28;45478;-57
2021/10/19 05:16:14;;;;;;;;;10.33;10.00;;;;;18.67;56.75;101693.78;4997237;28;45492;-56
2021/10/19 05:18:39;;;;;;;;;11.67;10.00;;;;;18.68;56.81;101699.97;4998007;28;45492;-56
2021/10/19 05:21:05;;;;;;;;;11.67;9.67;;;;;18.68;56.59;101702.63;4997244;28;47085;-55
2021/10/19 05:23:32;;;;;;;;;12.67;10.00;;;;;18.68;56.89;101707.97;4997068;28;45460;-50
2021/10/19 05:25:57;;;;;;;;;13.67;10.33;;;;;18.69;56.79;101701.75;4997351;28;45247;-51
2021/10/19 05:28:22;;;;;;;;;8.67;7.67;;;;;18.66;57.10;101707.97;4996993;28;45420;-52
2021/10/19 05:30:48;;;;;;;;;8.33;8.33;;;;;18.68;57.06;101703.53;4996982;28;47108;-51
2021/10/19 05:33:13;;;;;;;;;13.67;11.67;;;;;18.68;57.30;101697.31;4996972;28;45214;-53
2021/10/19 05:35:39;;;;;;;;;11.00;11.00;;;;;18.69;57.30;101696.44;4997061;28;45340;-55
2021/10/19 05:38:04;;;;;;;;;11.67;10.00;;;;;18.69;57.28;101699.09;4997302;28;45336;-54
2021/10/19 05:40:29;;;;;;;;;13.00;11.67;;;;;18.69;57.28;101697.31;4996658;28;47245;-52
2021/10/19 05:42:55;;;;;;;;;10.00;8.00;;;;;18.69;57.16;101693.78;4997017;28;45382;-52
2021/10/19 05:45:20;;;;;;;;;12.00;10.67;;;;;18.70;57.08;101698.19;4979233;28;45354;-53
2021/10/19 05:47:46;;;;;;;;;12.00;9.67;;;;;18.70;57.23;101693.75;4997135;28;45428;-53
2021/10/19 05:50:18;;;;;;;;;13.67;11.00;;;;;18.70;57.26;101691.09;4996869;28;46060;-54
2021/10/19 05:52:44;;;;;;;;;11.33;10.00;;;;;18.70;57.23;101690.19;4996810;28;45286;-59
2021/10/19 05:55:10;;;;;;;;;9.67;9.00;;;;;18.69;57.24;101683.13;4997143;28;45604;-56
2021/10/19 05:57:36;;;;;;;;;11.00;11.00;;;;;18.69;57.46;101684.00;4996834;28;45257;-62
2021/10/19 06:00:04;;;;;;;;;8.67;8.67;;;;;18.78;58.05;101690.22;4996407;28;46869;-51
2021/10/19 06:02:29;;;;;;;;;8.00;8.00;;;;;19.09;58.26;101693.69;4996784;28;45262;-60
2021/10/19 06:04:55;;;;;;;;;10.00;9.00;;;;;19.46;57.78;101689.13;4996754;28;46100;-57
2021/10/19 06:07:20;;;;;;;;;9.00;9.00;;;;;19.82;58.44;101690.75;4997187;28;45395;-59
2021/10/19 06:09:45;;;;;;;;;10.67;8.33;;;;;20.08;57.64;101697.69;4996380;28;46088;-56
2021/10/19 06:12:11;;;;;;;;;;;;;;;20.29;57.00;101693.09;4999101;28;45247;-59
2021/10/19 06:14:36;;;;;;;;;12.33;9.33;;;;;20.32;55.25;101691.31;4996597;28;45316;-57
2021/10/19 06:17:01;;;;;;;;;10.33;7.00;;;;;20.25;54.80;101693.16;4996848;28;45187;-56
2021/10/19 06:19:27;;;;;;;;;9.00;8.67;;;;;20.16;54.88;101692.34;4996440;28;45996;-55
2021/10/19 06:21:52;;;;;;;;;10.67;8.33;;;;;20.07;54.84;101695.91;4996620;28;45326;-56
2021/10/19 06:24:18;;;;;;;;;8.33;8.33;;;;;20.00;54.91;101697.75;4996691;28;45270;-53
2021/10/19 06:26:44;;;;;;;;;13.00;11.00;;;;;19.95;55.03;101700.44;4996900;28;45315;-53
2021/10/19 06:29:11;;;;;;;;;9.00;8.67;;;;;19.90;55.23;101703.13;4996646;28;47508;-57
2021/10/19 06:31:38;;;;;;;;;10.00;9.33;;;;;19.86;55.32;101706.72;4995995;28;45332;-54
2021/10/19 06:34:04;;;;;;;;;10.33;9.00;;;;;19.83;55.20;101711.19;4996430;28;45551;-55
2021/10/19 06:36:30;;;;;;;;;9.67;8.33;;;;;19.78;55.51;101703.19;4996564;28;45178;-54
2021/10/19 06:38:56;;;;;;;;;9.33;8.67;;;;;19.74;55.54;101707.66;4996128;28;47097;-54
2021/10/19 06:41:21;;;;;;;;;7.67;7.67;;;;;19.71;55.79;101707.72;4996165;28;45281;-57
2021/10/19 06:43:47;;;;;;;;;13.00;11.33;;;;;19.67;55.61;101711.28;4995375;28;45375;-55
2021/10/19 06:46:13;;;;;;;;;13.00;10.33;;;;;19.63;55.75;101713.06;4996582;28;45166;-56
2021/10/19 06:48:39;;;;;;;;;8.00;7.33;;;;;19.61;55.78;101709.50;4996260;28;46985;-55
2021/10/19 06:51:05;;;;;;;;;11.00;7.00;;;;;19.58;55.89;101716.66;4997776;28;45405;-55
2021/10/19 06:53:34;;;;;;;;;12.00;11.33;;;;;19.55;55.95;101718.44;4999901;28;45364;-54
2021/10/19 06:56:00;;;;;;;;;12.00;8.67;;;;;19.53;56.03;101717.56;4999838;28;45266;-55
2021/10/19 06:58:25;;;;;;;;;8.67;8.00;;;;;19.50;56.15;101722.88;4999546;28;46073;-56
2021/10/19 07:00:52;;;;;;;;;13.00;10.33;;;;;19.47;56.25;101720.25;4998955;28;45161;-56
2021/10/19 07:03:17;;;;;;;;;10.67;9.67;;;;;19.46;56.05;101729.13;4999338;28;45321;-57
2021/10/19 07:05:42;;;;;;;;;11.67;10.33;;;;;19.45;56.16;101719.38;4999485;28;45254;-58
2021/10/19 07:08:08;;;;;;;;;9.00;8.33;;;;;19.42;56.24;101719.38;4998815;28;45944;-56
2021/10/19 07:10:33;;;;;;;;;11.00;9.00;;;;;19.40;56.24;101723.81;4999059;28;45710;-54
2021/10/19 07:12:59;;;;;;;;;12.33;12.00;;;;;19.40;56.47;101719.38;4999199;28;45456;-55
2021/10/19 07:15:24;;;;;;;;;14.33;13.33;;;;;19.39;56.35;101725.63;4999345;28;45448;-53
2021/10/19 07:17:49;;;;;;;;;12.00;10.00;;;;;19.37;56.62;101723.84;4998898;28;45998;-57
2021/10/19 07:20:15;;;;;;;;;14.67;11.00;;;;;19.37;56.44;101724.75;4981054;28;45496;-59
2021/10/19 07:22:41;;;;;;;;;9.00;9.00;;;;;19.36;56.43;101727.38;4999192;28;45380;-56
2021/10/19 07:25:08;;;;;;;;;9.33;9.33;;;;;19.34;56.48;101730.06;4999058;28;45320;-59
2021/10/19 07:27:34;;;;;;;;;13.33;12.67;;;;;19.33;56.64;101729.16;4998852;28;46195;-56
2021/10/19 07:30:00;;;;;;;;;13.00;12.00;;;;;19.32;56.55;101731.84;4998590;28;45374;-53
2021/10/19 07:32:26;;;;;;;;;12.00;11.33;;;;;19.31;56.59;101738.97;4998268;28;45246;-58
2021/10/19 07:34:52;;;;;;;;;12.33;9.33;;;;;19.29;56.69;101732.75;4998772;28;45426;-56
2021/10/19 07:37:18;;;;;;;;;11.33;11.33;;;;;19.29;56.77;101735.41;4998286;28;47190;-54
2021/10/19 07:39:44;;;;;;;;;12.00;9.67;;;;;19.29;56.66;101743.41;4998519;28;45464;-54
2021/10/19 07:42:10;;;;;;;;;10.67;10.67;;;;;19.28;56.74;101738.09;4998641;28;45445;-56
2021/10/19 07:44:36;;;;;;;;;13.67;9.00;;;;;19.27;56.62;101736.31;4998867;28;45250;-55
2021/10/19 07:47:01;;;;;;;;;12.33;12.33;;;;;19.27;56.74;101749.66;4998267;28;47114;-56
2021/10/19 07:49:26;;;;;;;;;13.33;12.33;;;;;19.25;57.06;101746.97;4998523;28;45340;-55
2021/10/19 07:51:52;;;;;;;;;12.33;10.67;;;;;19.24;57.09;101737.22;4998791;28;45516;-57
2021/10/19 07:54:18;;;;;;;;;14.67;12.33;;;;;19.24;56.89;101739.88;4998875;28;45464;-55
2021/10/19 07:56:43;;;;;;;;;13.00;11.67;;;;;19.23;57.06;101738.09;4998719;28;46407;-57
2021/10/19 07:59:08;;;;;;;;;12.33;12.33;;;;;19.22;56.94;101733.66;4981163;28;45334;-54
2021/10/19 08:01:36;;;;;;;;;14.67;12.00;;;;;19.23;57.03;101737.22;4997759;28;45490;-58
2021/10/19 08:04:02;;;;;;;;;11.00;11.00;;;;;19.22;57.11;101736.34;4998420;28;45312;-60
2021/10/19 08:06:28;;;;;;;;;13.33;11.67;;;;;19.20;56.91;101741.69;4997503;28;46329;-58
2021/10/19 08:08:53;;;;;;;;;13.33;11.67;;;;;19.20;57.23;101744.34;4998298;28;45301;-59
2021/10/19 08:11:18;;;;;;;;;13.33;12.33;;;;;19.21;57.25;101751.44;4998487;28;45439;-59
2021/10/19 08:13:44;;;;;;;;;16.33;14.00;;;;;19.19;57.32;101747.00;4998776;28;45469;-54
2021/10/19 08:16:09;;;;;;;;;16.00;14.67;;;;;19.19;57.13;101755.00;4998229;28;45393;-59
2021/10/19 08:18:35;;;;;;;;;13.33;11.33;;;;;19.19;57.06;101753.22;4998404;28;45416;-59
2021/10/19 08:21:00;;;;;;;;;14.67;12.67;;;;;19.18;57.31;101755.91;4998314;28;45353;-59
2021/10/19 08:23:27;;;;;;;;;12.00;10.67;;;;;19.19;57.07;101762.97;4998217;28;45364;-59
2021/10/19 08:25:53;;;;;;;;;12.67;12.67;;;;;19.18;57.18;101758.56;4998250;28;46385;-60
2021/10/19 08:28:25;;;;;;;;;10.67;10.00;;;;;19.18;57.14;101764.78;4997829;28;45440;-59
2021/10/19 08:30:52;;;;;;;;;14.33;12.33;;;;;19.17;56.92;101781.66;4998180;28;45472;-61
2021/10/19 08:33:17;;;;;;;;;11.00;11.00;;;;;19.18;57.15;101774.56;4997557;28;45440;-61
2021/10/19 08:35:43;;;;;;;;;12.33;12.33;;;;;19.17;57.35;101781.66;4997496;28;47116;-56
2021/10/19 08:38:13;;;;;;;;;10.67;10.67;;;;;19.17;57.25;101791.41;4997913;28;45446;-60
2021/10/19 08:40:42;;;;;;;;;12.67;11.67;;;;;19.17;57.33;101786.09;4997699;28;45379;-58
2021/10/19 08:43:08;;;;;;;;;14.33;12.00;;;;;19.16;57.08;101779.00;4997803;28;45458;-59
2021/10/19 08:45:33;;;;;;;;;11.67;10.67;;;;;19.14;57.21;101789.59;4997223;28;46896;-56
2021/10/19 08:48:00;;;;;;;;;12.00;11.00;;;;;19.14;57.53;101780.75;4997366;28;45547;-56
2021/10/19 08:50:26;;;;;;;;;12.67;12.33;;;;;19.13;57.21;101787.84;4997384;28;45495;-56
2021/10/19 08:52:52;;;;;;;;;11.67;11.67;;;;;19.14;57.41;101780.75;4997378;28;45368;-56
2021/10/19 08:55:18;;;;;;;;;12.33;10.33;;;;;19.14;57.23;101786.06;4997673;28;46140;-60
2021/10/19 08:57:43;;;;;;;;;12.00;10.00;;;;;19.13;57.32;101773.63;4997628;28;45389;-54
2021/10/19 09:00:10;;;;;;;;;13.33;12.67;;;;;19.14;57.25;101772.75;4998076;28;45162;-60
2021/10/19 09:02:40;;;;;;;;;13.00;11.33;;;;;19.14;57.13;101770.09;4997660;28;45543;-57
2021/10/19 09:05:13;;;;;;;;;16.00;13.00;;;;;19.14;57.44;101772.75;4997222;28;46202;-56
2021/10/19 09:07:39;;;;;;;;;11.67;10.67;;;;;19.14;57.39;101770.09;4997463;28;45365;-57
2021/10/19 09:10:15;;;;;;;;;14.00;11.00;;;;;19.12;57.19;101767.41;4997784;28;45308;-60
2021/10/19 09:12:54;;;;;;;;;11.67;11.67;;;;;19.14;57.37;101764.75;4997723;28;45424;-56
2021/10/19 09:15:23;;;;;;;;;12.67;10.33;;;;;19.14;57.30;101767.41;4997308;28;46228;-55
2021/10/19 09:17:49;;;;;;;;;15.67;13.33;;;;;19.14;57.23;101764.75;4997308;28;45470;-57
2021/10/19 09:20:16;;;;;;;;;12.00;10.67;;;;;19.12;57.52;101767.41;4997515;28;45312;-54
2021/10/19 09:22:59;;;;;;;;;13.67;12.33;;;;;19.13;57.49;101762.97;4997567;28;45443;-58
2021/10/19 09:25:32;;;;;;;;;10.00;8.33;;;;;19.12;57.41;101762.06;4997247;28;47321;-52
2021/10/19 09:28:00;;;;;;;;;13.00;12.00;;;;;19.13;57.27;101776.28;4997175;28;45398;-59
2021/10/19 09:30:33;;;;;;;;;13.00;12.00;;;;;19.12;57.54;101767.41;4997221;28;45392;-57
2021/10/19 09:33:00;;;;;;;;;18.00;11.67;;;;;19.11;57.29;101770.97;4997111;28;45583;-60
2021/10/19 09:35:25;;;;;;;;;13.67;12.67;;;;;19.12;57.57;101769.19;4996977;28;47087;-59
2021/10/19 09:37:59;;;;;;;;;13.00;13.00;;;;;19.12;57.43;101764.72;4996945;28;45181;-58
2021/10/19 09:40:41;;;;;;;;;11.33;10.67;;;;;19.12;57.48;101771.88;4997055;28;45325;-58
2021/10/19 09:43:09;;;;;;;;;14.67;14.00;;;;;19.10;57.49;101764.75;4997401;28;45333;-56
2021/10/19 09:45:35;;;;;;;;;13.00;11.33;;;;;19.11;57.50;101768.31;4996790;28;46204;-57
2021/10/19 09:48:02;;;;;;;;;17.67;14.67;;;;;19.11;57.53;101770.97;4996990;28;45468;-52
2021/10/19 09:50:29;;;;;;;;;17.33;16.00;;;;;19.12;57.72;101769.19;4997204;28;45234;-57
2021/10/19 09:52:55;;;;;;;;;17.33;15.33;;;;;19.11;57.56;101773.63;4996993;28;45743;-56
2021/10/19 09:55:22;;;;;;;;;14.33;13.33;;;;;19.11;57.44;101773.63;4996609;28;47146;-58
2021/10/19 09:57:50;;;;;;;;;14.33;13.33;;;;;19.12;57.72;101777.19;4996553;28;45541;-59
2021/10/19 10:00:16;;;;;;;;;14.00;12.00;;;;;19.10;57.73;101775.41;4996766;28;45255;-56
2021/10/19 10:02:43;;;;;;;;;18.67;15.00;;;;;19.10;57.72;101769.19;4996920;28;45448;-56
2021/10/19 10:05:09;;;;;;;;;15.33;14.00;;;;;19.10;57.90;101774.50;4996746;28;46108;-56
2021/10/19 10:07:37;;;;;;;;;18.67;16.33;;;;;19.10;57.89;101764.75;4979032;28;45346;-60
2021/10/19 10:10:04;;;;;;;;;17.67;15.00;;;;;19.10;57.57;101769.19;4996897;28;45269;-56
2021/10/19 10:12:31;;;;;;;;;21.33;17.00;;;;;19.09;57.92;101759.44;4996945;28;45388;-58
2021/10/19 10:14:57;;;;;;;;;16.67;16.67;;;;;19.09;57.70;101768.31;4996527;28;46027;-57
2021/10/19 10:17:23;;;;;;;;;22.33;16.00;;;;;19.09;57.92;101762.09;4996498;28;45496;-56
2021/10/19 10:19:49;;;;;;;;;21.33;18.00;;;;;19.09;57.67;101757.66;4996691;28;45215;-57
2021/10/19 10:22:31;;;;;;;;;16.00;14.67;;;;;19.10;57.98;101763.84;4996865;28;45589;-55
2021/10/19 10:25:10;;;;;;;;;14.00;13.67;;;;;19.10;57.86;101764.75;4996272;28;46255;-55
2021/10/19 10:27:36;;;;;;;;;19.33;16.00;;;;;19.10;58.11;101761.19;4999981;28;45389;-54
2021/10/19 10:30:03;;;;;;;;;13.67;13.00;;;;;19.09;57.88;101762.97;5000034;28;45252;-53
2021/10/19 10:32:32;;;;;;;;;16.00;14.33;;;;;19.09;58.04;101749.66;4999813;28;45305;-53
2021/10/19 10:35:11;;;;;;;;;17.00;13.33;;;;;19.09;58.13;101760.31;4999695;28;45502;-53
2021/10/19 10:37:50;;;;;;;;;19.67;16.00;;;;;19.09;58.14;101756.75;4999759;28;45278;-56
2021/10/19 10:40:33;;;;;;;;;17.00;16.00;;;;;19.09;57.88;101751.44;4999946;28;45317;-54
2021/10/19 10:43:01;;;;;;;;;16.00;14.67;;;;;19.07;58.16;101748.78;4999929;28;45351;-53
2021/10/19 10:45:34;;;;;;;;;15.33;15.33;;;;;19.07;58.13;101738.13;4999550;28;46180;-54
2021/10/19 10:48:01;;;;;;;;;14.33;14.00;;;;;19.07;58.09;101735.44;4999555;28;45292;-56
2021/10/19 10:50:28;;;;;;;;;17.33;17.00;;;;;19.08;57.96;101733.66;4999863;28;45332;-55
2021/10/19 10:52:59;;;;;;;;;15.33;14.00;;;;;19.07;58.25;101735.44;4999849;28;45516;-53
2021/10/19 10:55:24;;;;;;;;;15.33;12.67;;;;;19.07;58.22;101724.78;4999595;28;46377;-53
2021/10/19 10:57:50;;;;;;;;;11.00;11.00;;;;;19.08;58.05;101729.22;4999660;28;45364;-57
2021/10/19 11:00:21;;;;;;;;;15.33;14.00;;;;;19.07;58.13;101716.81;4999650;28;45332;-52
2021/10/19 11:02:47;;;;;;;;;16.00;15.00;;;;;19.07;58.07;101719.47;4999714;28;45486;-53
2021/10/19 11:05:15;;;;;;;;;14.00;14.00;;;;;19.08;58.28;101718.56;4999378;28;46269;-54
2021/10/19 11:07:42;;;;;;;;;15.33;15.33;;;;;19.08;58.27;101718.56;4999715;28;45424;-51
2021/10/19 11:10:17;;;;;;;;;18.00;15.33;;;;;19.07;58.21;101711.47;4981740;28;45466;-51